Lake Monroe, Florida
Current Conditions -  °F | °C
As of 12:53 AM on Wednesday 22 Oct 2014 (Local Time) from KSFB Reporting Station
Clear Clear  
Wind Chill: 71°   Ceiling: Unl
Heat Index: 71°   Visibility: 7mi
Dew Point: 69°   Wind: 3mph
Humidity: 93%   Direction: 140°SE
Pressure: 29.95"   Gusts: NA
Location:  28.83°N, 81.33°W
Report Text: KSFB 220453Z AUTO 14003KT 7SM CLR 22/21 A2995 RMK AO2 SLP141 T02170206 402940206
Loading
Personal Weather Stations






























Interactive Weather Map
Tropical Storm Tracking
New forecast layout! Learn more

10-Day Weather Forecast

Advertisements
Track Severe Weather on mobile